Time;durP1;ratioP1;P1;durP2;ratioP2;P2;SDS_P1;SDS_P2;PMS_P1;PMS_P2;Temp;Humidity;BMP_temperature;BMP_pressure;BME280_temperature;BME280_humidity;BME280_pressure;Samples;Min_cycle;Max_cycle;Signal;HPM_P1;HPM_P2
2023/04/27 00:00:09;;;;;;;9.13;5.30;;;;;;;13.91;42.81;102200.63;5030224;28;20029;-70
2023/04/27 00:02:36;;;;;;;11.57;5.17;;;;;;;14.21;42.19;102207.56;5050498;28;20025;-70
2023/04/27 00:05:02;;;;;;;8.57;4.63;;;;;;;13.72;43.39;102219.06;5053126;28;20043;-70
2023/04/27 00:07:27;;;;;;;14.50;4.83;;;;;;;13.60;43.25;102213.84;5050989;28;20347;-70
2023/04/27 00:09:53;;;;;;;7.53;4.60;;;;;;;13.83;43.32;102215.53;5042135;28;20017;-71
2023/04/27 00:12:18;;;;;;;9.27;4.90;;;;;;;13.74;43.27;102204.16;5033731;28;20080;-70
2023/04/27 00:14:43;;;;;;;6.90;4.27;;;;;;;13.62;43.22;102212.06;5031409;28;20043;-70
2023/04/27 00:17:09;;;;;;;12.20;5.40;;;;;;;13.64;43.34;102204.19;5046569;28;20090;-70
2023/04/27 00:19:34;;;;;;;8.50;4.67;;;;;;;13.80;43.13;102199.78;5041634;28;20033;-70
2023/04/27 00:21:59;;;;;;;9.47;4.60;;;;;;;13.83;42.99;102205.03;5029978;28;20028;-70
2023/04/27 00:24:25;;;;;;;8.37;4.93;;;;;;;13.36;43.78;102199.81;5029891;28;20034;-70
2023/04/27 00:26:50;;;;;;;9.77;4.60;;;;;;;13.58;43.29;102210.31;5031153;28;20037;-70
2023/04/27 00:29:15;;;;;;;15.73;4.20;;;;;;;13.00;43.82;102212.00;5039591;28;20037;-70
2023/04/27 00:31:41;;;;;;;9.33;4.50;;;;;;;13.61;43.24;102209.44;5047269;28;20119;-70
2023/04/27 00:34:06;;;;;;;16.10;4.63;;;;;;;13.43;45.31;102205.06;5048227;28;20221;-70
2023/04/27 00:36:33;;;;;;;8.97;4.97;;;;;;;13.31;44.74;102208.53;5049490;28;20029;-70
2023/04/27 00:38:59;;;;;;;12.43;4.80;;;;;;;13.28;44.64;102205.91;5040359;28;20140;-69
2023/04/27 00:41:24;;;;;;;17.30;5.47;;;;;;;13.48;43.52;102200.69;5031140;28;20513;-70
2023/04/27 00:43:49;;;;;;;7.53;4.10;;;;;;;12.99;44.64;102199.75;5028962;28;20021;-70
2023/04/27 00:46:16;;;;;;;8.63;5.20;;;;;;;12.86;45.63;102198.00;5029875;28;20521;-70
2023/04/27 00:48:42;;;;;;;14.27;5.07;;;;;;;13.27;44.06;102188.38;5030382;28;20108;-70
2023/04/27 00:51:07;;;;;;;10.30;4.90;;;;;;;13.12;43.93;102178.75;5035870;28;20048;-70
2023/04/27 00:53:35;;;;;;;10.67;4.70;;;;;;;13.22;43.79;102180.53;5048718;28;20497;-70
2023/04/27 00:56:00;;;;;;;12.63;4.67;;;;;;;13.43;44.09;102178.81;5036809;28;20194;-70
2023/04/27 00:58:26;;;;;;;6.43;3.83;;;;;;;13.23;43.65;102182.28;5031249;28;20064;-70
2023/04/27 01:00:51;;;;;;;6.00;3.77;;;;;;;13.35;44.73;102182.31;5048120;28;20025;-70
2023/04/27 01:03:17;;;;;;;7.23;4.13;;;;;;;13.34;43.41;102185.78;5048402;28;20374;-70
2023/04/27 01:05:42;;;;;;;7.90;4.60;;;;;;;13.04;44.25;102190.13;5036846;28;20037;-70
2023/04/27 01:08:08;;;;;;;8.47;3.77;;;;;;;13.32;44.19;102187.50;5028686;28;20053;-70
2023/04/27 01:10:34;;;;;;;6.17;3.50;;;;;;;13.11;44.34;102188.38;5049460;28;20116;-70
2023/04/27 01:12:59;;;;;;;5.93;3.23;;;;;;;13.24;44.05;102191.88;5027997;28;20028;-70
2023/04/27 01:15:25;;;;;;;5.60;3.37;;;;;;;13.28;44.04;102191.00;5042368;28;20025;-70
2023/04/27 01:17:58;;;;;;;6.57;3.30;;;;;;;13.43;43.99;102184.06;5042168;28;20657;-70
2023/04/27 01:20:24;;;;;;;7.17;3.97;;;;;;;13.36;43.17;102181.41;5047979;28;20444;-70
2023/04/27 01:22:50;;;;;;;9.40;4.10;;;;;;;13.04;43.96;102171.75;5043186;28;20492;-70
2023/04/27 01:25:15;;;;;;;7.70;3.60;;;;;;;13.03;45.11;102179.63;5046928;28;20020;-70
2023/04/27 01:27:41;;;;;;;7.43;3.60;;;;;;;12.99;44.79;102168.25;5031621;28;20386;-70
2023/04/27 01:30:07;;;;;;;8.63;3.50;;;;;;;12.99;44.20;102178.75;5036343;28;20126;-70
2023/04/27 01:32:32;;;;;;;6.60;3.60;;;;;;;12.90;44.13;102168.25;5031523;28;20020;-70
2023/04/27 01:34:57;;;;;;;7.93;3.67;;;;;;;12.95;44.60;102166.50;5047730;28;20031;-70
2023/04/27 01:37:23;;;;;;;6.93;3.70;;;;;;;12.71;45.63;102170.81;5039370;28;20332;-70
2023/04/27 01:39:48;;;;;;;7.10;3.00;;;;;;;12.73;45.20;102171.72;5028497;28;20393;-70
2023/04/27 01:42:13;;;;;;;5.23;3.13;;;;;;;12.81;45.31;102168.22;5029897;28;20037;-70
2023/04/27 01:44:39;;;;;;;6.67;3.63;;;;;;;13.21;43.87;102163.00;5044915;28;20112;-70
2023/04/27 01:47:04;;;;;;;6.23;3.47;;;;;;;12.90;44.27;102170.88;5029020;28;20105;-70
2023/04/27 01:49:30;;;;;;;6.67;3.17;;;;;;;12.72;45.09;102171.69;5041829;28;20033;-70
2023/04/27 01:51:55;;;;;;;5.83;3.03;;;;;;;13.00;43.86;102170.00;5038519;28;20121;-70
2023/04/27 01:54:20;;;;;;;6.33;3.27;;;;;;;12.73;45.05;102166.47;5032590;28;20057;-70
2023/04/27 01:56:46;;;;;;;6.43;3.80;;;;;;;12.94;44.05;102175.25;5031958;28;20029;-70
2023/04/27 01:59:11;;;;;;;5.30;3.00;;;;;;;12.82;44.70;102176.09;5044768;28;20033;-70
2023/04/27 02:01:36;;;;;;;5.67;3.10;;;;;;;12.55;46.21;102169.03;5049699;28;20033;-70
2023/04/27 02:04:02;;;;;;;6.10;3.23;;;;;;;12.67;45.05;102176.06;5036247;28;20038;-70
2023/04/27 02:06:28;;;;;;;7.60;3.60;;;;;;;12.55;45.87;102171.66;5048287;28;20025;-70
2023/04/27 02:08:53;;;;;;;6.47;3.30;;;;;;;13.03;43.51;102159.50;5034525;28;20030;-70
2023/04/27 02:11:18;;;;;;;5.00;3.13;;;;;;;12.38;45.36;102163.75;5027140;28;20037;-70
2023/04/27 02:13:44;;;;;;;6.20;3.00;;;;;;;12.77;45.08;102161.22;5027840;28;20124;-70
2023/04/27 02:16:09;;;;;;;5.47;2.90;;;;;;;12.56;44.97;102162.94;5029514;28;20501;-69
2023/04/27 02:18:35;;;;;;;6.50;3.17;;;;;;;12.56;45.51;102157.69;5048568;28;20396;-69
2023/04/27 02:21:00;;;;;;;5.70;2.80;;;;;;;12.52;46.18;102153.28;5028030;28;20138;-70
2023/04/27 02:23:26;;;;;;;5.67;2.90;;;;;;;12.04;46.24;102156.59;5028028;28;20408;-69
2023/04/27 02:25:51;;;;;;;7.40;3.13;;;;;;;12.57;44.43;102154.19;5048107;28;20044;-70
2023/04/27 02:28:16;;;;;;;6.27;2.97;;;;;;;12.26;46.15;102161.94;5033524;28;20017;-69
2023/04/27 02:30:42;;;;;;;6.00;3.00;;;;;;;12.04;46.22;102159.22;5040651;28;20432;-70
2023/04/27 02:33:07;;;;;;;10.23;2.90;;;;;;;12.42;45.06;102154.13;5032088;28;20036;-69
2023/04/27 02:35:32;;;;;;;5.67;2.97;;;;;;;12.68;44.54;102151.56;5042141;28;20432;-69
2023/04/27 02:37:58;;;;;;;5.57;2.90;;;;;;;12.46;45.19;102148.00;5028021;28;20113;-69
2023/04/27 02:40:24;;;;;;;4.37;3.10;;;;;;;12.32;45.36;102146.25;5057363;28;20552;-69
2023/04/27 02:42:50;;;;;;;6.73;2.87;;;;;;;12.38;45.25;102148.88;5046194;28;20025;-69
2023/04/27 02:45:15;;;;;;;7.03;2.90;;;;;;;12.32;45.87;102147.97;5032054;28;20017;-69
2023/04/27 02:47:41;;;;;;;5.13;3.20;;;;;;;12.50;45.98;102145.44;5031864;28;20033;-70
2023/04/27 02:50:07;;;;;;;5.20;2.70;;;;;;;12.00;47.28;102149.59;5049827;28;20119;-68
2023/04/27 02:52:32;;;;;;;4.63;2.73;;;;;;;12.55;45.64;102150.66;5047987;28;20045;-69
2023/04/27 02:54:57;;;;;;;8.07;2.23;;;;;;;12.00;45.73;102152.19;5032824;28;20033;-71
2023/04/27 02:57:23;;;;;;;6.37;2.97;;;;;;;12.65;44.31;102152.47;5036924;28;20318;-70
2023/04/27 02:59:48;;;;;;;5.13;2.47;;;;;;;12.25;44.65;102149.69;5051971;28;20064;-69
2023/04/27 03:02:13;;;;;;;3.83;2.07;;;;;;;12.54;44.69;102159.41;5052174;28;20466;-70
2023/04/27 03:04:39;;;;;;;4.13;2.20;;;;;;;12.24;45.87;102154.94;5050462;28;20024;-70
2023/04/27 03:07:05;;;;;;;4.30;2.30;;;;;;;12.05;45.77;102154.88;5049071;28;20028;-69
2023/04/27 03:09:30;;;;;;;6.83;2.60;;;;;;;12.34;45.25;102156.75;5046219;28;20030;-70
2023/04/27 03:11:55;;;;;;;4.93;2.40;;;;;;;12.17;44.98;102154.03;5042983;28;20036;-69
2023/04/27 03:14:22;;;;;;;4.73;2.37;;;;;;;12.27;44.35;102161.06;5035164;28;20064;-70
2023/04/27 03:16:47;;;;;;;4.40;2.37;;;;;;;12.25;45.04;102157.56;5032578;28;20025;-72
2023/04/27 03:19:12;;;;;;;6.30;2.50;;;;;;;11.99;45.72;102150.47;5030395;28;20036;-69
2023/04/27 03:21:38;;;;;;;4.30;2.27;;;;;;;11.70;46.43;102151.16;5034107;28;20031;-70
2023/04/27 03:24:04;;;;;;;3.67;2.57;;;;;;;12.10;45.37;102154.88;5050491;28;20032;-70
2023/04/27 03:26:30;;;;;;;4.20;1.90;;;;;;;12.04;46.03;102156.59;5051177;28;20374;-70
2023/04/27 03:28:56;;;;;;;4.13;2.20;;;;;;;12.05;45.69;102163.59;5050160;28;20032;-69
2023/04/27 03:31:21;;;;;;;6.00;2.67;;;;;;;11.84;45.88;102159.09;5051825;28;20041;-70
2023/04/27 03:33:46;;;;;;;4.93;2.63;;;;;;;11.93;45.38;102165.25;5047740;28;20429;-69
2023/04/27 03:36:12;;;;;;;3.70;2.00;;;;;;;11.87;45.51;102156.47;5048373;28;20033;-69
2023/04/27 03:38:37;;;;;;;4.17;2.03;;;;;;;12.12;45.15;102156.63;5045328;28;20075;-69
2023/04/27 03:41:05;;;;;;;2.73;1.80;;;;;;;12.00;44.78;102154.81;5048018;28;20076;-69
2023/04/27 03:43:31;;;;;;;6.07;2.20;;;;;;;12.23;44.93;102159.31;5037712;28;20032;-70
2023/04/27 03:45:56;;;;;;;4.20;2.13;;;;;;;12.35;44.84;102154.13;5051666;28;20492;-69
2023/04/27 03:48:22;;;;;;;3.80;2.20;;;;;;;12.03;46.07;102164.44;5030894;28;20033;-69
2023/04/27 03:50:47;;;;;;;3.33;1.83;;;;;;;12.22;44.62;102157.56;5042580;28;20092;-69
2023/04/27 03:53:13;;;;;;;4.40;1.90;;;;;;;12.34;44.29;102161.97;5050981;28;20515;-69
2023/04/27 03:55:43;;;;;;;5.97;2.70;;;;;;;12.18;44.69;102161.91;5047754;28;20064;-69
2023/04/27 03:58:09;;;;;;;3.47;1.70;;;;;;;12.16;45.10;102168.88;5049317;28;20033;-69
2023/04/27 04:00:36;;;;;;;4.63;2.60;;;;;;;11.99;44.27;102174.06;5049406;28;20139;-70
2023/04/27 04:03:01;;;;;;;2.43;1.70;;;;;;;11.89;45.46;102169.59;5047823;28;20128;-70
2023/04/27 04:05:27;;;;;;;5.40;1.83;;;;;;;11.91;45.39;102173.09;5033013;28;20120;-69
2023/04/27 04:07:53;;;;;;;3.73;1.83;;;;;;;11.86;45.73;102177.44;5047969;28;20071;-70
2023/04/27 04:10:18;;;;;;;2.17;1.43;;;;;;;11.84;45.24;102173.91;5041511;28;20412;-69
2023/04/27 04:12:44;;;;;;;5.30;2.03;;;;;;;11.86;45.38;102174.81;5037206;28;20021;-69
2023/04/27 04:15:10;;;;;;;2.73;1.67;;;;;;;11.68;45.70;102176.44;5039340;28;20036;-70
2023/04/27 04:17:35;;;;;;;5.47;1.90;;;;;;;11.61;45.44;102172.03;5041322;28;20501;-69
2023/04/27 04:20:01;;;;;;;3.30;1.97;;;;;;;11.63;46.50;102172.91;5049054;28;20113;-69
2023/04/27 04:22:26;;;;;;;5.43;2.17;;;;;;;11.65;46.08;102176.44;5049231;28;20532;-70
2023/04/27 04:24:52;;;;;;;5.63;2.30;;;;;;;11.44;46.33;102181.50;5050453;28;20060;-69
2023/04/27 04:27:18;;;;;;;4.27;1.97;;;;;;;11.41;47.02;102181.47;5050835;28;20096;-70
2023/04/27 04:29:44;;;;;;;3.73;1.97;;;;;;;11.17;46.59;102188.25;5032867;28;20117;-69
2023/04/27 04:32:11;;;;;;;3.87;2.53;;;;;;;10.99;47.56;102184.59;5028893;28;20044;-69
2023/04/27 04:34:36;;;;;;;5.13;2.20;;;;;;;11.63;46.34;102188.63;5048658;28;20037;-70
2023/04/27 04:37:03;;;;;;;5.50;2.37;;;;;;;11.40;46.83;102190.19;5048622;28;20020;-69
2023/04/27 04:39:32;;;;;;;8.43;2.57;;;;;;;11.43;46.83;102180.63;5049040;28;20120;-69
2023/04/27 04:41:58;;;;;;;7.27;2.83;;;;;;;11.56;46.82;102199.91;5050688;28;20381;-69
2023/04/27 04:44:23;;;;;;;4.63;2.37;;;;;;;11.53;45.93;102186.81;5048926;28;20193;-69
2023/04/27 04:46:50;;;;;;;3.27;2.10;;;;;;;11.77;45.60;102200.94;5043660;28;20445;-69
2023/04/27 04:49:15;;;;;;;4.47;1.77;;;;;;;11.96;46.07;102196.72;5035327;28;20342;-69
2023/04/27 04:51:42;;;;;;;4.77;2.20;;;;;;;11.97;45.06;102199.38;5049475;28;20489;-69
2023/04/27 04:54:08;;;;;;;5.00;2.00;;;;;;;11.63;46.38;102208.72;5040031;28;20498;-70
2023/04/27 04:56:33;;;;;;;4.17;1.87;;;;;;;11.84;46.18;102201.00;5030357;28;20032;-70
2023/04/27 04:58:58;;;;;;;5.83;2.17;;;;;;;11.69;46.40;102199.16;5031503;28;20025;-69
2023/04/27 05:01:24;;;;;;;3.23;1.83;;;;;;;11.87;46.36;102192.28;5035687;28;20428;-69
2023/04/27 05:03:49;;;;;;;5.60;2.47;;;;;;;11.63;46.04;102187.75;5037961;28;20025;-70
2023/04/27 05:06:14;;;;;;;5.03;2.00;;;;;;;12.08;46.25;102193.31;5047291;28;20029;-69
2023/04/27 05:08:40;;;;;;;5.07;1.70;;;;;;;12.01;45.69;102195.88;5048249;28;20116;-69
2023/04/27 05:11:05;;;;;;;3.93;2.30;;;;;;;12.41;44.55;102194.34;5043646;28;20393;-69
2023/04/27 05:13:31;;;;;;;4.50;1.90;;;;;;;12.29;45.06;102201.28;5046702;28;20106;-69
2023/04/27 05:15:56;;;;;;;3.20;1.80;;;;;;;12.47;44.29;102204.84;5049119;28;20024;-70
2023/04/27 05:18:21;;;;;;;4.20;2.17;;;;;;;11.65;46.23;102201.72;5047799;28;20025;-69
2023/04/27 05:20:47;;;;;;;4.40;2.30;;;;;;;11.55;46.08;102211.25;5046293;28;20064;-69
2023/04/27 05:23:12;;;;;;;4.07;2.07;;;;;;;11.45;46.54;102215.53;5046374;28;20409;-69
2023/04/27 05:25:40;;;;;;;3.03;1.93;;;;;;;12.11;45.87;102202.06;5037570;28;20366;-70
2023/04/27 05:28:09;;;;;;;4.90;2.17;;;;;;;11.41;46.83;102210.28;5045150;28;20031;-69
2023/04/27 05:30:35;;;;;;;4.53;2.40;;;;;;;11.93;46.03;102210.66;5033633;28;20025;-69
2023/04/27 05:33:02;;;;;;;6.60;2.43;;;;;;;11.78;46.15;102213.19;5043666;28;20564;-69
2023/04/27 05:35:28;;;;;;;4.27;2.37;;;;;;;12.56;44.97;102208.38;5044225;28;20033;-69
2023/04/27 05:37:54;;;;;;;6.27;2.27;;;;;;;12.73;43.91;102208.44;5038988;28;20554;-69
2023/04/27 05:40:19;;;;;;;3.63;2.10;;;;;;;12.62;44.52;102214.53;5037127;28;20116;-69
2023/04/27 05:42:48;;;;;;;5.30;2.30;;;;;;;12.82;44.56;102206.72;5039105;28;20028;-69
2023/04/27 05:45:14;;;;;;;4.73;2.17;;;;;;;12.91;43.40;102206.72;5028653;28;20026;-69
2023/04/27 05:47:39;;;;;;;4.60;2.00;;;;;;;12.58;44.18;102218.88;5036624;28;20476;-69
2023/04/27 05:50:05;;;;;;;8.97;2.13;;;;;;;11.99;44.98;102215.97;5048249;28;20096;-69
2023/04/27 05:52:30;;;;;;;5.53;2.57;;;;;;;12.41;44.70;102217.94;5049052;28;20516;-69
2023/04/27 05:55:00;;;;;;;4.10;2.13;;;;;;;12.58;44.25;102223.25;5027802;28;20029;-69
2023/04/27 05:57:25;;;;;;;3.37;2.00;;;;;;;12.13;45.48;102220.41;5028907;28;20033;-69
2023/04/27 05:59:52;;;;;;;4.27;2.10;;;;;;;11.88;46.28;102233.31;5043721;28;20485;-70
2023/04/27 06:02:18;;;;;;;5.43;2.27;;;;;;;12.18;45.18;102221.31;5033836;28;20021;-69
2023/04/27 06:04:44;;;;;;;5.00;2.47;;;;;;;12.58;44.89;102218.00;5052985;28;20032;-69
2023/04/27 06:07:14;;;;;;;3.50;2.37;;;;;;;12.78;44.88;102215.47;5043570;28;20032;-69
2023/04/27 06:09:40;;;;;;;5.57;2.40;;;;;;;12.85;44.78;102219.84;5048672;28;20035;-69
2023/04/27 06:12:07;;;;;;;7.73;2.80;;;;;;;12.60;45.41;102227.63;5047076;28;20029;-69
2023/04/27 06:14:34;;;;;;;5.13;2.20;;;;;;;13.12;44.28;102215.50;5048228;28;20354;-69
2023/04/27 06:17:00;;;;;;;4.40;2.17;;;;;;;12.82;44.70;102227.72;5045566;28;20124;-69
2023/04/27 06:19:25;;;;;;;7.13;3.90;;;;;;;12.69;44.80;102232.03;5046356;28;20116;-70
2023/04/27 06:21:54;;;;;;;3.37;2.20;;;;;;;12.69;44.45;102224.16;5046295;28;20035;-70
2023/04/27 06:24:21;;;;;;;6.83;2.23;;;;;;;12.60;45.86;102230.25;5045865;28;20094;-70
2023/04/27 06:26:48;;;;;;;4.60;2.10;;;;;;;12.57;45.18;102232.88;5047645;28;20024;-69
2023/04/27 06:29:13;;;;;;;4.13;1.90;;;;;;;11.78;46.97;102228.91;5047910;28;20029;-69
2023/04/27 06:31:39;;;;;;;2.63;2.03;;;;;;;11.89;47.00;102219.38;5064754;28;20040;-69
2023/04/27 06:34:04;;;;;;;3.90;2.27;;;;;;;12.60;45.95;102219.75;5055439;28;20024;-70
2023/04/27 06:36:30;;;;;;;3.30;2.03;;;;;;;12.46;46.06;102221.44;5054227;28;20025;-69
2023/04/27 06:38:56;;;;;;;3.53;1.73;;;;;;;13.03;44.49;102219.00;5043185;28;20112;-69
2023/04/27 06:41:23;;;;;;;4.90;2.27;;;;;;;13.19;43.78;102212.03;5049941;28;20029;-69
2023/04/27 06:43:49;;;;;;;4.17;2.30;;;;;;;13.10;44.20;102212.03;5050383;28;20017;-69
2023/04/27 06:46:14;;;;;;;5.97;2.87;;;;;;;12.85;44.42;102211.97;5049696;28;20032;-69
2023/04/27 06:48:40;;;;;;;3.40;2.07;;;;;;;13.01;44.37;102213.75;5051207;28;20029;-69
2023/04/27 06:51:05;;;;;;;5.03;4.00;;;;;;;13.11;44.12;102221.66;5059903;28;20123;-69
2023/04/27 06:53:30;;;;;;;3.77;2.13;;;;;;;14.02;42.11;102217.25;5056465;28;20060;-69
2023/04/27 06:55:56;;;;;;;4.20;1.63;;;;;;;14.61;41.20;102209.16;5049793;28;20029;-71
2023/04/27 06:58:22;;;;;;;2.50;1.80;;;;;;;13.80;40.98;102218.19;5049420;28;20439;-69
2023/04/27 07:00:48;;;;;;;3.23;1.80;;;;;;;12.75;42.37;102225.91;5050963;28;20103;-69
2023/04/27 07:03:14;;;;;;;2.50;1.40;;;;;;;14.07;41.13;102218.13;5049691;28;20079;-69
2023/04/27 07:05:39;;;;;;;3.63;1.77;;;;;;;14.05;40.67;102217.25;5044938;28;20029;-69
2023/04/27 07:08:05;;;;;;;5.33;1.70;;;;;;;14.91;38.78;102216.03;5043871;28;20033;-69
2023/04/27 07:10:31;;;;;;;6.13;2.40;;;;;;;16.57;35.43;102207.44;5052322;28;20478;-70
2023/04/27 07:12:57;;;;;;;2.57;1.50;;;;;;;17.53;34.67;102202.50;5047780;28;20029;-69
2023/04/27 07:15:23;;;;;;;2.03;1.40;;;;;;;17.51;33.87;102209.59;5044011;28;20190;-70
2023/04/27 07:17:49;;;;;;;2.57;1.40;;;;;;;18.78;32.35;102198.25;5043613;28;20109;-70
2023/04/27 07:20:16;;;;;;;2.47;1.30;;;;;;;19.54;30.11;102200.91;5068786;28;20392;-70
2023/04/27 07:22:41;;;;;;;2.87;1.00;;;;;;;19.89;30.28;102197.31;5071821;28;20028;-70
2023/04/27 07:25:07;;;;;;;2.07;1.33;;;;;;;20.15;29.69;102207.22;5045966;28;20036;-69
2023/04/27 07:27:34;;;;;;;2.37;1.43;;;;;;;20.03;29.93;102204.91;5034079;28;21117;-69
2023/04/27 07:29:59;;;;;;;1.70;1.40;;;;;;;20.79;28.87;102206.22;5039664;28;20025;-70
2023/04/27 07:32:25;;;;;;;3.80;1.80;;;;;;;22.09;27.77;102201.88;5052210;28;20393;-70
2023/04/27 07:34:51;;;;;;;5.43;1.80;;;;;;;22.30;27.68;102202.00;5063730;28;20074;-71
2023/04/27 07:37:17;;;;;;;5.60;1.73;;;;;;;22.39;27.47;102206.97;5043329;28;20029;-69
2023/04/27 07:39:42;;;;;;;3.08;1.60;;;;;;;20.75;28.78;102204.56;5051396;28;20021;-70
2023/04/27 07:42:07;;;;;;;2.25;1.42;;;;;;;20.43;29.13;102209.06;5042943;28;20028;-69
2023/04/27 07:44:33;;;;;;;2.45;1.70;;;;;;;20.92;28.84;102206.69;5050314;28;20041;-69
2023/04/27 07:46:58;;;;;;;1.35;1.25;;;;;;;20.72;28.32;102210.00;5042796;28;20035;-70
2023/04/27 07:49:25;;;;;;;2.65;1.67;;;;;;;19.83;29.55;102206.31;5050449;28;20039;-70
2023/04/27 07:51:50;;;;;;;2.17;1.40;;;;;;;20.17;29.47;102207.16;5046009;28;20404;-69
2023/04/27 07:54:16;;;;;;;4.75;1.20;;;;;;;21.70;28.47;102199.72;5035081;28;20049;-70
2023/04/27 07:56:41;;;;;;;7.32;2.55;;;;;;;21.05;28.04;102201.88;5045767;28;20037;-70
2023/04/27 07:59:10;;;;;;;1.17;1.05;;;;;;;20.51;29.86;102199.06;5050130;28;20100;-70
2023/04/27 08:01:36;;;;;;;4.32;1.50;;;;;;;20.36;29.61;102207.50;5050190;28;20131;-70
2023/04/27 08:04:01;;;;;;;3.17;1.45;;;;;;;21.26;28.21;102199.41;5049124;28;20063;-70
2023/04/27 08:06:27;;;;;;;1.48;1.05;;;;;;;20.58;29.36;102213.03;5050307;28;20453;-70
2023/04/27 08:08:57;;;;;;;2.05;1.15;;;;;;;21.99;27.47;102195.97;5036932;28;20032;-70
2023/04/27 08:11:22;;;;;;;2.45;1.33;;;;;;;20.80;28.86;102204.41;5033615;28;20033;-70
2023/04/27 08:13:47;;;;;;;1.85;1.27;;;;;;;22.50;27.36;102196.78;5033620;28;20081;-70
2023/04/27 08:16:13;;;;;;;1.77;1.33;;;;;;;21.26;26.99;102194.97;5047648;28;20104;-70
2023/04/27 08:18:38;;;;;;;3.60;1.65;;;;;;;21.55;26.94;102194.94;5066787;28;20055;-70
2023/04/27 08:21:04;;;;;;;2.90;1.00;;;;;;;20.48;27.94;102196.53;5061006;28;20021;-70
2023/04/27 08:23:31;;;;;;;2.95;1.00;;;;;;;20.84;27.23;102192.78;5048432;28;20021;-70
2023/04/27 08:25:57;;;;;;;3.45;1.10;;;;;;;20.00;29.21;102189.03;5043818;28;20541;-69
2023/04/27 08:28:22;;;;;;;2.17;1.00;;;;;;;21.83;26.93;102185.06;5040720;28;20096;-69
2023/04/27 08:30:48;;;;;;;1.30;1.00;;;;;;;21.17;27.91;102190.84;5028090;28;20057;-69
2023/04/27 08:33:13;;;;;;;3.33;1.15;;;;;;;21.27;27.24;102185.22;5027698;28;20075;-69
2023/04/27 08:35:38;;;;;;;1.08;0.90;;;;;;;21.96;26.94;102192.59;5045610;28;20124;-70
2023/04/27 08:38:04;;;;;;;3.08;1.25;;;;;;;22.13;26.94;102192.84;5044209;28;20029;-69
2023/04/27 08:40:29;;;;;;;2.08;0.98;;;;;;;20.84;26.79;102198.97;5031646;28;20261;-70
2023/04/27 08:42:57;;;;;;;1.15;1.00;;;;;;;21.31;27.38;102197.47;5048172;28;20119;-69
2023/04/27 08:45:24;;;;;;;1.27;1.00;;;;;;;21.78;27.60;102194.97;5033170;28;20852;-69
2023/04/27 08:47:50;;;;;;;1.48;1.17;;;;;;;21.89;26.14;102186.63;5032270;28;20652;-69
2023/04/27 08:50:16;;;;;;;3.50;1.80;;;;;;;22.14;26.73;102183.91;5032526;28;20100;-70
2023/04/27 08:52:47;;;;;;;3.28;1.70;;;;;;;21.70;26.38;102183.75;5047576;28;20052;-70
2023/04/27 08:55:13;;;;;;;1.95;0.95;;;;;;;21.71;26.63;102188.16;5049074;28;20624;-70
2023/04/27 08:57:39;;;;;;;4.25;2.28;;;;;;;22.13;25.97;102190.19;5039079;28;20109;-69
2023/04/27 09:00:12;;;;;;;2.10;1.08;;;;;;;20.88;26.94;102193.56;5029817;28;20461;-70
2023/04/27 09:02:45;;;;;;;1.30;0.90;;;;;;;21.97;25.52;102186.34;5036144;28;20044;-69
2023/04/27 09:05:17;;;;;;;1.70;1.05;;;;;;;23.24;24.21;102176.09;5031408;28;20048;-69
2023/04/27 09:07:54;;;;;;;;;;;;;;;23.83;23.38;102177.94;5043386;28;20107;-70
2023/04/27 09:10:20;;;;;;;5.30;1.20;;;;;;;23.72;23.20;102173.09;5047599;28;19917;-69
2023/04/27 09:12:54;;;;;;;1.45;1.00;;;;;;;23.06;24.39;102177.72;5047547;28;20078;-69
2023/04/27 09:15:20;;;;;;;1.65;0.98;;;;;;;22.84;23.94;102176.78;5041123;28;20024;-69
2023/04/27 09:17:45;;;;;;;2.00;1.20;;;;;;;23.57;23.56;102167.59;5041643;28;20768;-70
2023/04/27 09:20:14;;;;;;;1.25;1.00;;;;;;;24.56;22.51;102175.53;5046499;28;20025;-70
2023/04/27 09:22:51;;;;;;;1.70;1.30;;;;;;;23.72;22.46;102181.09;5047990;28;20094;-70
2023/04/27 09:25:23;;;;;;;4.30;1.48;;;;;;;23.27;23.45;102175.97;5041673;28;20021;-70
2023/04/27 09:27:48;;;;;;;1.63;1.30;;;;;;;24.03;22.70;102170.91;5054222;28;20024;-70
2023/04/27 09:30:14;;;;;;;1.27;1.15;;;;;;;21.97;25.70;102173.91;5046319;28;20075;-69
2023/04/27 09:32:51;;;;;;;1.63;1.15;;;;;;;24.39;22.85;102162.09;5039515;28;20025;-69
2023/04/27 09:35:28;;;;;;;1.20;1.10;;;;;;;24.35;22.92;102165.84;5044155;28;20385;-70
2023/04/27 09:37:55;;;;;;;1.17;1.08;;;;;;;24.99;21.83;102174.38;5034075;28;20431;-70
2023/04/27 09:40:26;;;;;;;2.60;1.15;;;;;;;24.27;22.53;102173.34;5033089;28;20529;-69
2023/04/27 09:42:54;;;;;;;1.55;1.20;;;;;;;23.92;22.79;102178.50;5049187;28;20484;-69
2023/04/27 09:45:20;;;;;;;2.85;1.40;;;;;;;24.28;22.55;102180.44;5043151;28;20021;-69
2023/04/27 09:47:45;;;;;;;1.67;1.17;;;;;;;23.78;22.98;102174.66;5037297;28;20035;-68
2023/04/27 09:50:14;;;;;;;1.42;1.25;;;;;;;22.79;23.62;102184.13;5031009;28;20096;-71
2023/04/27 09:52:40;;;;;;;1.95;1.27;;;;;;;24.63;23.14;102178.78;5041875;28;20048;-71
2023/04/27 09:55:13;;;;;;;1.55;1.00;;;;;;;24.69;21.09;102174.97;5034101;28;20068;-69
2023/04/27 09:57:44;;;;;;;1.48;0.90;;;;;;;24.07;21.27;102177.81;5065830;28;20085;-69
2023/04/27 10:00:22;;;;;;;3.90;1.48;;;;;;;23.24;22.63;102176.09;5045057;28;20056;-70
2023/04/27 10:03:13;;;;;;;1.20;1.00;;;;;;;25.42;21.37;102174.03;5034399;28;20029;-69
2023/04/27 10:06:15;;;;;;;2.08;1.27;;;;;;;24.58;21.94;102166.53;5055545;28;20401;-70
2023/04/27 10:08:40;;;;;;;1.35;1.25;;;;;;;24.41;22.14;102176.22;5027760;28;20401;-70
2023/04/27 10:11:14;;;;;;;2.30;1.35;;;;;;;26.27;21.13;102161.50;5057304;28;20119;-70
2023/04/27 10:13:51;;;;;;;1.60;1.20;;;;;;;25.28;21.64;102162.22;5028990;28;20075;-70
2023/04/27 10:16:18;;;;;;;2.22;1.48;;;;;;;25.32;20.98;102162.91;5026952;28;20132;-70
2023/04/27 10:18:51;;;;;;;5.18;1.60;;;;;;;24.99;21.68;102161.00;5041455;28;20045;-69
2023/04/27 10:21:17;;;;;;;2.65;1.25;;;;;;;25.89;20.93;102162.63;5057223;28;20131;-70
2023/04/27 10:23:50;;;;;;;2.13;1.02;;;;;;;25.73;20.59;102158.09;5047171;28;20104;-70
2023/04/27 10:26:26;;;;;;;1.25;1.15;;;;;;;26.99;19.03;102167.28;5046598;28;20025;-70
2023/04/27 10:29:11;;;;;;;1.30;1.20;;;;;;;25.96;20.10;102165.84;5047749;28;20111;-70
2023/04/27 10:31:42;;;;;;;1.30;1.20;;;;;;;26.40;19.82;102167.91;5032549;28;20057;-69
2023/04/27 10:34:09;;;;;;;2.58;1.00;;;;;;;26.08;20.92;102154.50;5034518;28;20029;-70
2023/04/27 10:36:39;;;;;;;2.08;1.55;;;;;;;26.04;20.62;102159.13;5029354;28;20134;-70
2023/04/27 10:39:33;;;;;;;1.77;1.38;;;;;;;24.86;20.48;102161.59;5036610;28;20044;-70
2023/04/27 10:41:58;;;;;;;1.50;1.20;;;;;;;24.20;22.07;102162.94;5046313;28;20166;-69
2023/04/27 10:44:29;;;;;;;3.05;1.77;;;;;;;26.19;20.43;102149.38;5046378;28;20108;-70
2023/04/27 10:46:58;;;;;;;1.85;1.20;;;;;;;25.48;21.09;102137.09;5063366;28;20028;-70
2023/04/27 10:49:26;;;;;;;2.15;1.30;;;;;;;24.33;20.71;102149.00;5067294;28;20032;-69
2023/04/27 10:51:52;;;;;;;1.50;1.27;;;;;;;25.27;20.12;102138.22;5042395;28;20024;-70
2023/04/27 10:54:17;;;;;;;2.03;1.63;;;;;;;26.22;20.19;102134.97;5045009;28;20045;-69
2023/04/27 10:56:43;;;;;;;4.38;1.42;;;;;;;24.80;22.92;102145.88;5047075;28;20033;-69
2023/04/27 10:59:09;;;;;;;2.88;1.58;;;;;;;23.71;21.92;102143.81;5047234;28;20029;-70
2023/04/27 11:01:35;;;;;;;2.20;1.40;;;;;;;24.98;20.83;102137.91;5051581;28;20040;-70
2023/04/27 11:04:02;;;;;;;2.40;1.55;;;;;;;25.05;21.03;102129.47;5068179;28;20467;-69
2023/04/27 11:06:29;;;;;;;2.83;1.55;;;;;;;27.06;18.68;102131.91;5048222;28;20488;-69
2023/04/27 11:08:55;;;;;;;3.65;1.15;;;;;;;26.18;18.72;102128.03;5048685;28;20096;-69
2023/04/27 11:11:21;;;;;;;1.40;1.30;;;;;;;26.98;19.15;102126.16;5053599;28;20035;-70
2023/04/27 11:13:51;;;;;;;1.77;1.63;;;;;;;27.12;18.88;102121.78;5072468;28;20032;-70
2023/04/27 11:16:18;;;;;;;1.38;1.27;;;;;;;26.31;19.12;102120.16;5070488;28;20017;-71
2023/04/27 11:18:43;;;;;;;2.33;1.48;;;;;;;26.78;18.46;102119.28;5069624;28;20029;-71
2023/04/27 11:21:11;;;;;;;1.48;1.38;;;;;;;27.95;17.63;102115.84;5052712;28;20090;-71